Sumifukumaru No.5 — JD3058 — position and weather

sailwx.info

Track history (hours):
 
Tides and Currents Weather Stations Pressure Air Temp Water Temp Dewpoint Dewpoint Depression Visibility Wind Speed Wind Dir Waves Ship Positions

Sumifukumaru No.5

Last reported at 2014-Jul-30 01:21 UTC. Time now 2014-Aug-02 08:44 UTC.
Position N 34°45' E 139°08'.

Length 75 m; draft 4.4 m.

Type: Cargo ship. MMSI: 431001371.

Date/timePositionNaut miles runAvg speedWind from/ knotsBaromVisibWave heightAir tempDewpointWater temp
2014-Jul-30 01:21N 34°45' E 139°08'1413.1
2014-Jul-30 00:14N 34°55' E 139°21'912.5
2014-Jul-29 23:32N 34°60' E 139°30'1212.5
2014-Jul-29 22:33N 35°07' E 139°42'1111.1
2014-Jul-29 21:33N 35°18' E 139°44'7 7.0
2014-Jul-29 20:33N 35°24' E 139°49'4 4.4
2014-Jul-29 19:33N 35°22' E 139°54'0 0.0
2014-Jul-29 18:33N 35°22' E 139°54'0 0.0
2014-Jul-29 17:33N 35°22' E 139°54'0 0.0
2014-Jul-29 16:33N 35°22' E 139°54'0 0.0
2014-Jul-29 15:33N 35°22' E 139°54'0 0.0
2014-Jul-29 14:33N 35°22' E 139°54'0 0.0
2014-Jul-29 13:33N 35°22' E 139°54'3 2.9
2014-Jul-29 12:33N 35°23' E 139°51'0 0.0
2014-Jul-29 11:33N 35°24' E 139°51'0 0.0
2014-Jul-29 10:33N 35°24' E 139°51'6 5.7
2014-Jul-29 09:33N 35°24' E 139°44'3 3.1
2014-Jul-29 08:33N 35°24' E 139°40'0 0.0
2014-Jul-29 07:33N 35°24' E 139°40'0 0.0
2014-Jul-29 06:33N 35°24' E 139°40'0 0.0
2014-Jul-29 05:33N 35°24' E 139°40'0 0.0
2014-Jul-29 04:33N 35°24' E 139°40'0 0.0
2014-Jul-29 03:30N 35°24' E 139°40'0 0.0
2014-Jul-29 02:32N 35°24' E 139°40'0 0.0
2014-Jul-29 01:32N 35°24' E 139°40'0 0.0
2014-Jul-29 00:32N 35°24' E 139°40'0 0.0
2014-Jul-28 23:32N 35°24' E 139°40'0 0.0
2014-Jul-28 22:33N 35°24' E 139°40'0 0.0
2014-Jul-28 21:33N 35°24' E 139°40'0 0.0
2014-Jul-28 20:33N 35°24' E 139°40'0 0.0
2014-Jul-28 19:33N 35°24' E 139°40'0 0.0
2014-Jul-28 18:33N 35°24' E 139°40'0 0.0
2014-Jul-28 17:33N 35°24' E 139°40'0 0.0
2014-Jul-28 16:30N 35°24' E 139°40'0 0.0
2014-Jul-28 15:33N 35°24' E 139°40'0 0.0
2014-Jul-28 14:33N 35°24' E 139°40'0 0.0
2014-Jul-28 13:33N 35°24' E 139°40'0 0.0
2014-Jul-28 12:33N 35°24' E 139°40'0 0.0
2014-Jul-28 11:33N 35°24' E 139°40'0 0.0
2014-Jul-28 10:33N 35°24' E 139°40'0 0.0
2014-Jul-28 09:33N 35°24' E 139°40'0 0.0
2014-Jul-28 08:30N 35°24' E 139°40'0 0.0
2014-Jul-28 07:31N 35°24' E 139°40'0 0.0
2014-Jul-28 06:32N 35°24' E 139°40'1 1.0
2014-Jul-28 05:33N 35°23' E 139°40'0 0.0
2014-Jul-28 04:34N 35°23' E 139°40'0 0.0
2014-Jul-28 03:34N 35°23' E 139°40'0 0.0
2014-Jul-28 02:34N 35°23' E 139°40'0 0.0
2014-Jul-28 01:34N 35°23' E 139°40'0 0.0
2014-Jul-28 00:34N 35°23' E 139°40'0 0.0
2014-Jul-27 23:34N 35°23' E 139°40'0 0.0
2014-Jul-27 22:34N 35°23' E 139°40'0 0.0
2014-Jul-27 21:34N 35°23' E 139°40'0 0.0
2014-Jul-27 20:34N 35°23' E 139°40'0 0.0
2014-Jul-27 19:33N 35°23' E 139°40'0 0.0
2014-Jul-27 18:34N 35°23' E 139°40'0 0.0
2014-Jul-27 17:34N 35°23' E 139°40'0 0.0
2014-Jul-27 16:34N 35°23' E 139°40'0 0.0
2014-Jul-27 15:34N 35°23' E 139°40'0 0.0
2014-Jul-27 14:34N 35°23' E 139°40'0 0.0
2014-Jul-27 13:33N 35°23' E 139°40'0 0.0
2014-Jul-27 12:34N 35°23' E 139°40'0 0.0
2014-Jul-27 11:34N 35°23' E 139°40'0 0.0
2014-Jul-27 10:34N 35°23' E 139°40'4 4.1
2014-Jul-27 09:33N 35°20' E 139°43'1111.0
2014-Jul-27 08:33N 35°10' E 139°47'1211.9
2014-Jul-27 07:32N 34°58' E 139°44'13 6.6
2014-Jul-27 05:31N 34°56' E 140°01'66 9.0
2014-Jul-26 22:11N 35°45' E 140°54'911.3
2014-Jul-26 21:21N 35°53' E 140°47'5 6.4
2014-Jul-26 20:32N 35°55' E 140°41'1 1.3
2014-Jul-26 19:32N 35°56' E 140°40'0 0.0
2014-Jul-26 18:33N 35°56' E 140°40'0 0.0
2014-Jul-26 17:17N 35°56' E 140°40'0 0.1
2014-Jul-26 16:25N 35°56' E 140°40'0 0.0
2014-Jul-26 15:33N 35°56' E 140°40'0 0.0
2014-Jul-26 13:30N 35°56' E 140°40'0 0.0
2014-Jul-26 11:29N 35°56' E 140°40'0 0.0
2014-Jul-26 10:33N 35°56' E 140°40'0 0.0
2014-Jul-26 09:33N 35°56' E 140°40'0 0.0
2014-Jul-26 08:25N 35°56' E 140°40'0 0.1
2014-Jul-26 07:32N 35°56' E 140°40'0 0.0
2014-Jul-26 06:32N 35°56' E 140°40'0 0.0
2014-Jul-26 05:33N 35°56' E 140°40'0 0.0
2014-Jul-26 04:33N 35°56' E 140°40'0 0.0
2014-Jul-26 03:33N 35°56' E 140°40'0 0.0
2014-Jul-26 02:33N 35°56' E 140°40'0 0.0
2014-Jul-26 01:33N 35°56' E 140°40'0 0.0
2014-Jul-26 00:32N 35°56' E 140°40'0 0.0
2014-Jul-25 23:32N 35°56' E 140°40'0 0.0
2014-Jul-25 22:33N 35°56' E 140°40'0 0.0
2014-Jul-25 21:33N 35°56' E 140°40'0 0.0
2014-Jul-25 20:33N 35°56' E 140°40'0 0.0
2014-Jul-25 19:33N 35°56' E 140°40'0 0.0
2014-Jul-25 18:33N 35°56' E 140°40'0 0.0
2014-Jul-25 17:33N 35°56' E 140°40'0 0.0
2014-Jul-25 16:33N 35°56' E 140°40'0 0.0
2014-Jul-25 15:33N 35°56' E 140°40'0 0.0
2014-Jul-25 14:33N 35°56' E 140°40'0 0.0
2014-Jul-25 13:33N 35°56' E 140°40'5 3.8
2014-Jul-25 12:19N 35°58' E 140°45'1012.5
2014-Jul-25 11:33N 35°50' E 140°52'1211.4
2014-Jul-25 10:30N 35°38' E 140°52'1313.0
2014-Jul-25 09:31N 35°28' E 140°42'1513.0
2014-Jul-25 08:22N 35°16' E 140°31'1713.0
2014-Jul-25 07:05N 35°04' E 140°17'2412.9
2014-Jul-25 05:15N 34°52' E 139°52'912.6
2014-Jul-25 04:33N 34°58' E 139°43'1212.3
2014-Jul-25 03:34N 35°10' E 139°46'1212.2
2014-Jul-25 02:34N 35°22' E 139°42'7 7.4
2014-Jul-25 01:34N 35°29' E 139°39'0 0.0
2014-Jul-25 00:34N 35°29' E 139°39'0 0.0
2014-Jul-24 23:34N 35°29' E 139°39'1 1.0
2014-Jul-24 22:34N 35°28' E 139°40'9 9.1
2014-Jul-24 21:34N 35°32' E 139°50'7 6.5
2014-Jul-24 20:33N 35°38' E 139°48'0 0.0
2014-Jul-24 19:33N 35°38' E 139°48'0 0.0
2014-Jul-24 18:33N 35°38' E 139°48'0 0.0
2014-Jul-24 17:33N 35°38' E 139°48'0 0.0
2014-Jul-24 16:33N 35°38' E 139°48'0 0.0
2014-Jul-24 15:33N 35°38' E 139°48'0 0.0
2014-Jul-24 14:33N 35°38' E 139°48'0 0.0
2014-Jul-24 13:33N 35°38' E 139°48'0 0.0
2014-Jul-24 12:33N 35°38' E 139°48'0 0.0
2014-Jul-24 11:33N 35°38' E 139°48'0 0.0
2014-Jul-24 10:33N 35°38' E 139°48'0 0.0
2014-Jul-24 09:33N 35°38' E 139°48'0 0.0
2014-Jul-24 08:34N 35°38' E 139°48'0 0.0
2014-Jul-24 07:33N 35°38' E 139°48'0 0.0
2014-Jul-24 06:33N 35°38' E 139°48'0 0.0
2014-Jul-24 05:34N 35°38' E 139°48'9 9.4
2014-Jul-24 04:33N 35°29' E 139°51'1211.7
2014-Jul-24 03:33N 35°19' E 139°44'1110.9
2014-Jul-24 02:33N 35°08' E 139°46'1211.0
2014-Jul-24 01:31N 34°60' E 139°36'  
Track history (hours):
 
Tides and Currents Weather Stations Pressure Air Temp Water Temp Dewpoint Dewpoint Depression Visibility Wind Speed Wind Dir Waves Ship Positions

Sumifukumaru No.5

Last reported at 2014-Jul-30 01:21 UTC. Time now 2014-Aug-02 08:44 UTC.
Position N 34°45' E 139°08'.

Length 75 m; draft 4.4 m.

Type: Cargo ship. MMSI: 431001371.

Date/timePositionNaut miles runAvg speedWind from/ knotsBaromVisibWave heightAir tempDewpointWater temp
2014-Jul-30 01:21N 34°45' E 139°08'1413.1
2014-Jul-30 00:14N 34°55' E 139°21'912.5
2014-Jul-29 23:32N 34°60' E 139°30'1212.5
2014-Jul-29 22:33N 35°07' E 139°42'1111.1
2014-Jul-29 21:33N 35°18' E 139°44'7 7.0
2014-Jul-29 20:33N 35°24' E 139°49'4 4.4
2014-Jul-29 19:33N 35°22' E 139°54'0 0.0
2014-Jul-29 18:33N 35°22' E 139°54'0 0.0
2014-Jul-29 17:33N 35°22' E 139°54'0 0.0
2014-Jul-29 16:33N 35°22' E 139°54'0 0.0
2014-Jul-29 15:33N 35°22' E 139°54'0 0.0
2014-Jul-29 14:33N 35°22' E 139°54'0 0.0
2014-Jul-29 13:33N 35°22' E 139°54'3 2.9
2014-Jul-29 12:33N 35°23' E 139°51'0 0.0
2014-Jul-29 11:33N 35°24' E 139°51'0 0.0
2014-Jul-29 10:33N 35°24' E 139°51'6 5.7
2014-Jul-29 09:33N 35°24' E 139°44'3 3.1
2014-Jul-29 08:33N 35°24' E 139°40'0 0.0
2014-Jul-29 07:33N 35°24' E 139°40'0 0.0
2014-Jul-29 06:33N 35°24' E 139°40'0 0.0
2014-Jul-29 05:33N 35°24' E 139°40'0 0.0
2014-Jul-29 04:33N 35°24' E 139°40'0 0.0
2014-Jul-29 03:30N 35°24' E 139°40'0 0.0
2014-Jul-29 02:32N 35°24' E 139°40'0 0.0
2014-Jul-29 01:32N 35°24' E 139°40'0 0.0
2014-Jul-29 00:32N 35°24' E 139°40'0 0.0
2014-Jul-28 23:32N 35°24' E 139°40'0 0.0
2014-Jul-28 22:33N 35°24' E 139°40'0 0.0
2014-Jul-28 21:33N 35°24' E 139°40'0 0.0
2014-Jul-28 20:33N 35°24' E 139°40'0 0.0
2014-Jul-28 19:33N 35°24' E 139°40'0 0.0
2014-Jul-28 18:33N 35°24' E 139°40'0 0.0
2014-Jul-28 17:33N 35°24' E 139°40'0 0.0
2014-Jul-28 16:30N 35°24' E 139°40'0 0.0
2014-Jul-28 15:33N 35°24' E 139°40'0 0.0
2014-Jul-28 14:33N 35°24' E 139°40'0 0.0
2014-Jul-28 13:33N 35°24' E 139°40'0 0.0
2014-Jul-28 12:33N 35°24' E 139°40'0 0.0
2014-Jul-28 11:33N 35°24' E 139°40'0 0.0
2014-Jul-28 10:33N 35°24' E 139°40'0 0.0
2014-Jul-28 09:33N 35°24' E 139°40'0 0.0
2014-Jul-28 08:30N 35°24' E 139°40'0 0.0
2014-Jul-28 07:31N 35°24' E 139°40'0 0.0
2014-Jul-28 06:32N 35°24' E 139°40'1 1.0
2014-Jul-28 05:33N 35°23' E 139°40'0 0.0
2014-Jul-28 04:34N 35°23' E 139°40'0 0.0
2014-Jul-28 03:34N 35°23' E 139°40'0 0.0
2014-Jul-28 02:34N 35°23' E 139°40'0 0.0
2014-Jul-28 01:34N 35°23' E 139°40'0 0.0
2014-Jul-28 00:34N 35°23' E 139°40'0 0.0
2014-Jul-27 23:34N 35°23' E 139°40'0 0.0
2014-Jul-27 22:34N 35°23' E 139°40'0 0.0
2014-Jul-27 21:34N 35°23' E 139°40'0 0.0
2014-Jul-27 20:34N 35°23' E 139°40'0 0.0
2014-Jul-27 19:33N 35°23' E 139°40'0 0.0
2014-Jul-27 18:34N 35°23' E 139°40'0 0.0
2014-Jul-27 17:34N 35°23' E 139°40'0 0.0
2014-Jul-27 16:34N 35°23' E 139°40'0 0.0
2014-Jul-27 15:34N 35°23' E 139°40'0 0.0
2014-Jul-27 14:34N 35°23' E 139°40'0 0.0
2014-Jul-27 13:33N 35°23' E 139°40'0 0.0
2014-Jul-27 12:34N 35°23' E 139°40'0 0.0
2014-Jul-27 11:34N 35°23' E 139°40'0 0.0
2014-Jul-27 10:34N 35°23' E 139°40'4 4.1
2014-Jul-27 09:33N 35°20' E 139°43'1111.0
2014-Jul-27 08:33N 35°10' E 139°47'1211.9
2014-Jul-27 07:32N 34°58' E 139°44'13 6.6
2014-Jul-27 05:31N 34°56' E 140°01'66 9.0
2014-Jul-26 22:11N 35°45' E 140°54'911.3
2014-Jul-26 21:21N 35°53' E 140°47'5 6.4
2014-Jul-26 20:32N 35°55' E 140°41'1 1.3
2014-Jul-26 19:32N 35°56' E 140°40'0 0.0
2014-Jul-26 18:33N 35°56' E 140°40'0 0.0
2014-Jul-26 17:17N 35°56' E 140°40'0 0.1
2014-Jul-26 16:25N 35°56' E 140°40'0 0.0
2014-Jul-26 15:33N 35°56' E 140°40'0 0.0
2014-Jul-26 13:30N 35°56' E 140°40'0 0.0
2014-Jul-26 11:29N 35°56' E 140°40'0 0.0
2014-Jul-26 10:33N 35°56' E 140°40'0 0.0
2014-Jul-26 09:33N 35°56' E 140°40'0 0.0
2014-Jul-26 08:25N 35°56' E 140°40'0 0.1
2014-Jul-26 07:32N 35°56' E 140°40'0 0.0
2014-Jul-26 06:32N 35°56' E 140°40'0 0.0
2014-Jul-26 05:33N 35°56' E 140°40'0 0.0
2014-Jul-26 04:33N 35°56' E 140°40'0 0.0
2014-Jul-26 03:33N 35°56' E 140°40'0 0.0
2014-Jul-26 02:33N 35°56' E 140°40'0 0.0
2014-Jul-26 01:33N 35°56' E 140°40'0 0.0
2014-Jul-26 00:32N 35°56' E 140°40'0 0.0
2014-Jul-25 23:32N 35°56' E 140°40'0 0.0
2014-Jul-25 22:33N 35°56' E 140°40'0 0.0
2014-Jul-25 21:33N 35°56' E 140°40'0 0.0
2014-Jul-25 20:33N 35°56' E 140°40'0 0.0
2014-Jul-25 19:33N 35°56' E 140°40'0 0.0
2014-Jul-25 18:33N 35°56' E 140°40'0 0.0
2014-Jul-25 17:33N 35°56' E 140°40'0 0.0
2014-Jul-25 16:33N 35°56' E 140°40'0 0.0
2014-Jul-25 15:33N 35°56' E 140°40'0 0.0
2014-Jul-25 14:33N 35°56' E 140°40'0 0.0
2014-Jul-25 13:33N 35°56' E 140°40'5 3.8
2014-Jul-25 12:19N 35°58' E 140°45'1012.5
2014-Jul-25 11:33N 35°50' E 140°52'1211.4
2014-Jul-25 10:30N 35°38' E 140°52'1313.0
2014-Jul-25 09:31N 35°28' E 140°42'1513.0
2014-Jul-25 08:22N 35°16' E 140°31'1713.0
2014-Jul-25 07:05N 35°04' E 140°17'2412.9
2014-Jul-25 05:15N 34°52' E 139°52'912.6
2014-Jul-25 04:33N 34°58' E 139°43'1212.3
2014-Jul-25 03:34N 35°10' E 139°46'1212.2
2014-Jul-25 02:34N 35°22' E 139°42'7 7.4
2014-Jul-25 01:34N 35°29' E 139°39'0 0.0
2014-Jul-25 00:34N 35°29' E 139°39'0 0.0
2014-Jul-24 23:34N 35°29' E 139°39'1 1.0
2014-Jul-24 22:34N 35°28' E 139°40'9 9.1
2014-Jul-24 21:34N 35°32' E 139°50'7 6.5
2014-Jul-24 20:33N 35°38' E 139°48'0 0.0
2014-Jul-24 19:33N 35°38' E 139°48'0 0.0
2014-Jul-24 18:33N 35°38' E 139°48'0 0.0
2014-Jul-24 17:33N 35°38' E 139°48'0 0.0
2014-Jul-24 16:33N 35°38' E 139°48'0 0.0
2014-Jul-24 15:33N 35°38' E 139°48'0 0.0
2014-Jul-24 14:33N 35°38' E 139°48'0 0.0
2014-Jul-24 13:33N 35°38' E 139°48'0 0.0
2014-Jul-24 12:33N 35°38' E 139°48'0 0.0
2014-Jul-24 11:33N 35°38' E 139°48'0 0.0
2014-Jul-24 10:33N 35°38' E 139°48'0 0.0
2014-Jul-24 09:33N 35°38' E 139°48'0 0.0
2014-Jul-24 08:34N 35°38' E 139°48'0 0.0
2014-Jul-24 07:33N 35°38' E 139°48'0 0.0
2014-Jul-24 06:33N 35°38' E 139°48'0 0.0
2014-Jul-24 05:34N 35°38' E 139°48'9 9.4
2014-Jul-24 04:33N 35°29' E 139°51'1211.7
2014-Jul-24 03:33N 35°19' E 139°44'1110.9
2014-Jul-24 02:33N 35°08' E 139°46'1211.0
2014-Jul-24 01:31N 34°60' E 139°36'  

Dump ship's entire track history